Time;durP1;ratioP1;P1;durP2;ratioP2;P2;SDS_P1;SDS_P2;PMS_P1;PMS_P2;Temp;Humidity;BMP_temperature;BMP_pressure;BME280_temperature;BME280_humidity;BME280_pressure;Samples;Min_cycle;Max_cycle;Signal;HPM_P1;HPM_P2
2022/09/20 16:21:38;;;;;;;1.88;0.60;;;;;;;14.71;54.31;100990.41;4880589;29;20152;-76
2022/09/20 16:24:05;;;;;;;3.50;0.70;;;;;;;14.76;54.48;101012.34;4884972;29;20076;-73
2022/09/20 16:26:33;;;;;;;2.72;0.88;;;;;;;14.79;54.94;101028.19;4886162;29;20139;-77
2022/09/20 16:29:03;;;;;;;2.65;0.85;;;;;;;14.78;54.96;101021.13;4890481;29;20056;-74
2022/09/20 16:31:40;;;;;;;3.50;0.93;;;;;;;14.76;55.25;101016.81;4885641;29;20507;-74
2022/09/20 16:34:15;;;;;;;3.83;0.90;;;;;;;14.81;54.67;101018.28;4891383;29;20057;-76
2022/09/20 16:36:43;;;;;;;5.72;0.85;;;;;;;14.82;55.24;101021.81;4887947;29;20063;-76
2022/09/20 16:39:11;;;;;;;3.15;0.70;;;;;;;14.84;56.15;101031.44;4883400;29;20076;-75
2022/09/20 16:41:38;;;;;;;4.70;1.05;;;;;;;14.81;56.09;101030.75;4889833;29;20079;-80
2022/09/20 16:44:05;;;;;;;3.10;1.00;;;;;;;14.66;56.14;101013.78;4885286;29;21577;-77
2022/09/20 16:46:35;;;;;;;2.88;1.13;;;;;;;14.78;57.46;101030.94;4890288;29;20606;-74
2022/09/20 16:49:06;;;;;;;;;;;;;;;14.76;57.99;101044.34;4887866;29;20176;-73
2022/09/20 16:51:35;;;;;;;3.70;1.02;;;;;;;14.72;58.75;101038.31;4887669;29;20026;-77
2022/09/20 16:54:13;;;;;;;3.22;0.85;;;;;;;14.66;59.33;101043.97;4881599;29;20535;-75
2022/09/20 16:56:46;;;;;;;2.42;0.80;;;;;;;14.61;59.77;101047.84;4880673;29;20056;-73
2022/09/20 16:59:15;;;;;;;1.27;0.95;;;;;;;14.57;60.59;101048.94;4885147;29;20072;-73
2022/09/20 17:01:43;;;;;;;2.78;1.15;;;;;;;14.51;60.48;101050.09;4890289;29;20057;-76
2022/09/20 17:04:12;;;;;;;2.15;0.75;;;;;;;14.44;60.00;101046.06;4888564;29;20052;-71
2022/09/20 17:06:42;;;;;;;3.87;1.10;;;;;;;14.31;60.27;101051.13;4886859;29;20049;-76
2022/09/20 17:09:09;;;;;;;2.45;1.58;;;;;;;14.25;60.34;101064.78;4886791;29;20497;-76
2022/09/20 17:11:38;;;;;;;1.90;1.05;;;;;;;14.16;60.61;101067.91;4884518;29;20059;-76
2022/09/20 17:14:06;;;;;;;3.17;1.13;;;;;;;13.94;61.06;101038.84;4887409;29;20125;-77
2022/09/20 17:16:35;;;;;;;4.18;1.40;;;;;;;14.05;61.71;101068.44;4886883;29;20068;-77
2022/09/20 17:19:06;;;;;;;3.95;1.30;;;;;;;13.99;62.26;101065.25;4886198;29;20143;-75
2022/09/20 17:21:34;;;;;;;4.45;1.50;;;;;;;13.92;62.76;101061.16;4889724;29;20053;-76
2022/09/20 17:24:03;;;;;;;4.93;2.95;;;;;;;13.88;64.33;101071.09;4891459;29;20072;-73
2022/09/20 17:26:35;;;;;;;4.45;1.80;;;;;;;13.80;63.88;101064.44;4888207;29;20063;-76
2022/09/20 17:29:05;;;;;;;4.88;1.30;;;;;;;13.69;64.14;101065.81;4888020;29;20136;-78
2022/09/20 17:31:37;;;;;;;4.80;1.60;;;;;;;13.66;64.22;101073.97;4882585;29;20503;-75
2022/09/20 17:34:06;;;;;;;2.70;1.45;;;;;;;13.61;65.13;101085.75;4889354;29;20072;-75
2022/09/20 17:36:38;;;;;;;1.73;1.30;;;;;;;13.53;65.34;101075.50;4889090;29;20053;-77
2022/09/20 17:39:05;;;;;;;3.85;1.30;;;;;;;13.53;65.83;101080.81;4886116;29;20079;-77
2022/09/20 17:41:36;;;;;;;3.72;1.60;;;;;;;13.40;66.14;101069.03;4867379;29;20049;-79
2022/09/20 17:44:10;;;;;;;3.22;2.10;;;;;;;13.49;66.23;101095.22;4884239;29;20445;-81
2022/09/20 17:46:42;;;;;;;6.38;2.92;;;;;;;13.49;66.50;101095.22;4888040;29;20083;-78
2022/09/20 17:49:14;;;;;;;3.30;1.48;;;;;;;13.49;66.77;101099.66;4884139;29;20072;-74
2022/09/20 17:51:43;;;;;;;4.95;1.70;;;;;;;13.46;66.95;101092.69;4885562;29;20550;-79
2022/09/20 17:54:12;;;;;;;4.68;1.95;;;;;;;13.43;67.19;101094.63;4870296;29;20056;-75
2022/09/20 17:56:42;;;;;;;5.13;2.43;;;;;;;13.42;66.86;101099.06;4889295;29;20044;-74
2022/09/20 17:59:10;;;;;;;4.40;1.50;;;;;;;13.41;67.11;101102.66;4884073;29;20184;-76
2022/09/20 18:01:39;;;;;;;3.38;1.45;;;;;;;13.38;67.04;101097.50;4886053;29;20068;-78
2022/09/20 18:04:06;;;;;;;5.53;1.50;;;;;;;13.31;67.06;101098.72;4884046;29;20060;-76
2022/09/20 18:06:35;;;;;;;5.80;2.13;;;;;;;13.33;67.71;101104.84;4876011;29;20044;-78
2022/09/20 18:09:07;;;;;;;3.75;1.92;;;;;;;13.34;67.38;101106.56;4884189;29;20135;-79
2022/09/20 18:11:37;;;;;;;3.78;1.77;;;;;;;13.38;68.17;101110.78;4883754;29;20055;-78
2022/09/20 18:14:06;;;;;;;2.97;1.90;;;;;;;13.42;68.14;101119.50;4885836;29;20040;-75
2022/09/20 18:16:33;;;;;;;4.68;1.88;;;;;;;13.42;68.47;101120.38;4883456;29;21763;-79
2022/09/20 18:19:01;;;;;;;3.08;1.52;;;;;;;13.41;68.68;101128.41;4889208;29;20116;-77
2022/09/20 18:21:30;;;;;;;2.47;1.83;;;;;;;13.39;68.81;101128.47;4887466;29;20087;-76
2022/09/20 18:23:57;;;;;;;5.10;2.00;;;;;;;13.35;69.14;101118.94;4885043;29;20052;-80
2022/09/20 18:26:27;;;;;;;4.35;1.88;;;;;;;13.36;69.09;101126.00;4888590;29;20787;-78
2022/09/20 18:28:56;;;;;;;2.63;1.53;;;;;;;13.33;68.96;101131.44;4883091;29;20049;-78
2022/09/20 18:31:28;;;;;;;3.78;1.63;;;;;;;13.37;69.17;101132.19;4884835;29;20064;-78
2022/09/20 18:33:56;;;;;;;4.00;1.38;;;;;;;13.33;68.87;101129.66;4887223;29;20060;-75
2022/09/20 18:36:26;;;;;;;2.20;1.52;;;;;;;13.29;68.92;101135.19;4880953;29;20048;-76
2022/09/20 18:38:54;;;;;;;3.58;1.45;;;;;;;13.29;68.45;101144.03;4890800;29;20071;-75
2022/09/20 18:41:25;;;;;;;2.08;1.25;;;;;;;13.27;68.25;101147.69;4878412;29;20067;-74
2022/09/20 18:43:53;;;;;;;3.85;1.60;;;;;;;13.24;68.50;101151.34;4886736;29;20109;-76
2022/09/20 18:46:25;;;;;;;2.45;1.40;;;;;;;13.26;68.68;101152.13;4876315;29;20065;-78
2022/09/20 18:48:53;;;;;;;3.33;1.80;;;;;;;13.28;68.22;101158.25;4886534;29;20063;-76
2022/09/20 18:51:20;;;;;;;3.35;1.90;;;;;;;13.28;68.47;101155.59;4888301;29;20052;-79
2022/09/20 18:53:47;;;;;;;4.00;1.63;;;;;;;13.27;68.10;101161.84;4889213;29;20044;-78
2022/09/20 18:56:25;;;;;;;2.42;1.77;;;;;;;13.27;68.62;101159.19;4889245;29;20517;-79
2022/09/20 18:58:58;;;;;;;3.40;1.38;;;;;;;13.27;68.31;101158.31;4891279;29;20142;-73
2022/09/20 19:01:34;;;;;;;4.05;1.77;;;;;;;13.28;68.03;101171.56;4892564;29;20076;-76
2022/09/20 19:04:21;;;;;;;3.63;1.65;;;;;;;13.28;67.21;101170.69;4886294;29;20400;-77
2022/09/20 19:07:02;;;;;;;4.32;1.52;;;;;;;13.29;67.40;101170.63;4891001;29;20064;-74
2022/09/20 19:09:47;;;;;;;2.58;1.70;;;;;;;13.32;68.81;101169.63;4892352;29;20120;-75
2022/09/20 19:12:22;;;;;;;2.40;1.45;;;;;;;13.31;67.89;101179.41;4896382;29;20060;-78
2022/09/20 19:15:07;;;;;;;6.40;1.73;;;;;;;13.42;70.35;101178.03;4893573;29;20056;-75
2022/09/20 19:17:56;;;;;;;3.15;1.27;;;;;;;13.44;68.02;101177.03;4884530;29;20131;-76
2022/09/20 19:20:33;;;;;;;4.20;1.45;;;;;;;13.43;67.12;101191.25;4879492;29;20076;-79
2022/09/20 19:23:24;;;;;;;4.03;1.30;;;;;;;13.38;66.88;101198.59;4886777;29;20307;-77
2022/09/20 19:26:04;;;;;;;3.10;1.40;;;;;;;13.26;67.29;101175.22;4887661;29;20072;-73
2022/09/20 19:28:31;;;;;;;2.97;1.40;;;;;;;13.35;67.20;101196.09;4892472;29;20056;-74
2022/09/20 19:30:58;;;;;;;3.75;1.17;;;;;;;13.32;67.22;101199.75;4891984;29;20418;-75
2022/09/20 19:33:26;;;;;;;2.67;1.38;;;;;;;13.32;67.68;101202.41;4890812;29;20056;-76
2022/09/20 19:35:53;;;;;;;3.17;1.40;;;;;;;13.32;67.30;101209.53;4888045;29;20048;-74
2022/09/20 19:38:39;;;;;;;3.22;1.60;;;;;;;13.29;67.48;101207.84;4886663;29;20056;-73
2022/09/20 19:41:38;;;;;;;1.95;1.30;;;;;;;13.26;67.33;101215.09;4887167;29;20143;-80
2022/09/20 19:44:26;;;;;;;3.70;1.40;;;;;;;13.23;67.86;101212.56;4885226;29;20059;-81
2022/09/20 19:47:25;;;;;;;6.50;1.58;;;;;;;13.22;68.55;101213.53;4887935;29;20061;-75
2022/09/20 19:50:02;;;;;;;2.72;1.60;;;;;;;13.04;68.95;101191.25;4856336;29;20057;-75
2022/09/20 19:52:29;;;;;;;2.90;1.52;;;;;;;13.20;68.69;101210.94;4888693;29;20056;-81
2022/09/20 19:54:57;;;;;;;2.35;1.50;;;;;;;13.21;69.00;101219.78;4894481;29;20080;-73
2022/09/20 19:57:45;;;;;;;2.75;1.50;;;;;;;13.20;69.14;101220.72;4901166;29;20108;-76
2022/09/20 20:00:18;;;;;;;2.35;1.40;;;;;;;13.18;69.33;101217.25;4899455;29;20067;-75
2022/09/20 20:02:46;;;;;;;3.67;1.88;;;;;;;13.14;69.67;101223.59;4891293;29;20052;-72
2022/09/20 20:05:16;;;;;;;3.05;1.55;;;;;;;13.08;69.96;101211.44;4890002;29;20053;-75
2022/09/20 20:07:57;;;;;;;2.63;1.45;;;;;;;12.97;70.20;101206.59;4891974;29;20045;-75
2022/09/20 20:10:34;;;;;;;3.78;1.50;;;;;;;13.07;70.26;101228.31;4887728;29;20053;-73
2022/09/20 20:14:16;;;;;;;3.75;1.60;;;;;;;12.93;70.62;101212.97;4888975;29;20055;-77
2022/09/20 20:16:14;;;;;;;3.10;1.40;;;;;;;13.00;70.48;101235.72;4869789;29;20370;-75
2022/09/20 20:18:50;;;;;;;2.20;1.17;;;;;;;12.96;70.05;101230.59;4883401;29;20052;-80
2022/09/20 20:21:36;;;;;;;3.58;1.38;;;;;;;12.77;70.79;101211.91;4868973;29;20052;-72
2022/09/20 20:24:32;;;;;;;3.13;1.20;;;;;;;12.71;70.76;101206.88;4886917;29;20051;-76
2022/09/20 20:26:59;;;;;;;1.75;1.10;;;;;;;12.85;70.80;101244.34;4888498;29;20144;-74
2022/09/20 20:29:25;;;;;;;3.65;1.20;;;;;;;12.81;70.55;101240.09;4889524;29;20060;-73
2022/09/20 20:31:53;;;;;;;3.25;1.35;;;;;;;12.78;70.93;101239.34;4873038;29;20056;-79
2022/09/20 20:34:19;;;;;;;2.17;1.25;;;;;;;12.76;70.90;101235.88;4886218;29;20516;-77
2022/09/20 20:36:47;;;;;;;2.45;1.40;;;;;;;12.71;70.97;101240.56;4889512;29;20059;-76
2022/09/20 20:39:14;;;;;;;3.17;1.00;;;;;;;12.32;71.28;101184.63;4888408;29;20132;-72
2022/09/20 20:41:42;;;;;;;3.20;1.10;;;;;;;12.64;71.43;101245.25;4888466;29;20140;-76
2022/09/20 20:44:08;;;;;;;2.20;1.15;;;;;;;12.60;71.53;101241.84;4888455;29;20045;-76
2022/09/20 20:46:35;;;;;;;3.13;1.27;;;;;;;12.60;71.80;101246.31;4886457;29;20052;-76
2022/09/20 20:49:02;;;;;;;3.28;1.23;;;;;;;12.61;72.13;101256.00;4885026;29;20076;-73
2022/09/20 20:51:31;;;;;;;4.30;1.38;;;;;;;12.60;71.75;101252.47;4886448;29;20291;-78
2022/09/20 20:53:58;;;;;;;3.53;1.10;;;;;;;12.54;72.48;101246.59;4887061;29;20513;-76
2022/09/20 20:56:27;;;;;;;2.80;1.67;;;;;;;12.55;72.79;101259.81;4887703;29;20088;-76
2022/09/20 20:59:00;;;;;;;2.95;1.48;;;;;;;12.45;73.01;101244.28;4885874;29;20179;-78
2022/09/20 21:01:33;;;;;;;5.10;1.67;;;;;;;12.52;73.44;101267.88;4890681;29;20095;-72
2022/09/20 21:04:00;;;;;;;4.75;1.67;;;;;;;12.50;73.87;101267.09;4890093;29;20078;-75
2022/09/20 21:06:29;;;;;;;2.97;1.27;;;;;;;12.47;74.47;101261.03;4884253;29;20143;-73
2022/09/20 21:08:56;;;;;;;3.47;1.25;;;;;;;12.43;74.96;101270.06;4889167;29;20520;-75
2022/09/20 21:11:25;;;;;;;2.70;1.30;;;;;;;12.44;75.13;101269.97;4886321;29;20426;-77
2022/09/20 21:13:55;;;;;;;3.58;1.80;;;;;;;12.41;76.08;101262.16;4887321;29;20060;-76
2022/09/20 21:16:36;;;;;;;3.72;1.52;;;;;;;12.40;76.43;101264.88;4884890;29;20749;-78
2022/09/20 21:19:04;;;;;;;4.07;2.38;;;;;;;12.30;77.24;101262.56;4882987;29;20060;-76
2022/09/20 21:21:34;;;;;;;3.20;2.25;;;;;;;12.23;77.53;101252.28;4884202;29;20561;-77
2022/09/20 21:24:03;;;;;;;4.80;2.28;;;;;;;12.28;78.64;101267.09;4882064;29;20139;-77
2022/09/20 21:26:31;;;;;;;3.95;2.00;;;;;;;12.21;79.19;101264.75;4888963;29;20108;-79
2022/09/20 21:29:00;;;;;;;4.88;2.20;;;;;;;12.10;79.80;101262.53;4885761;29;20059;-76
2022/09/20 21:31:35;;;;;;;5.63;2.65;;;;;;;12.06;80.59;101265.34;4886617;29;20052;-75
2022/09/20 21:34:10;;;;;;;7.35;2.67;;;;;;;12.02;82.26;101269.91;4891555;29;20041;-78
2022/09/20 21:36:38;;;;;;;4.72;2.30;;;;;;;12.02;82.52;101274.34;4883350;29;20055;-78
2022/09/20 21:39:05;;;;;;;4.93;2.65;;;;;;;12.03;82.79;101266.34;4891517;29;21589;-77
2022/09/20 21:41:34;;;;;;;6.00;2.60;;;;;;;12.03;83.49;101269.00;4893141;29;20131;-75
2022/09/20 21:44:03;;;;;;;5.72;2.60;;;;;;;12.01;83.64;101267.31;4893575;29;20056;-77
2022/09/20 21:46:32;;;;;;;6.85;2.70;;;;;;;11.94;83.98;101269.38;4891315;29;20128;-75
2022/09/20 21:49:02;;;;;;;6.88;2.78;;;;;;;11.84;84.65;101271.47;4888941;29;20727;-76
2022/09/20 21:51:30;;;;;;;6.38;2.78;;;;;;;11.73;85.55;101271.00;4892775;29;20076;-78
2022/09/20 21:54:00;;;;;;;5.03;2.95;;;;;;;11.78;85.98;101278.84;4890081;29;20498;-79
2022/09/20 21:56:30;;;;;;;4.57;2.90;;;;;;;11.69;85.99;101273.81;4894020;29;20147;-74
2022/09/20 21:58:57;;;;;;;6.43;3.10;;;;;;;11.52;86.94;101250.56;4890886;29;20446;-74
2022/09/20 22:01:26;;;;;;;8.07;3.03;;;;;;;11.62;87.31;101278.50;4895422;29;20104;-76
2022/09/20 22:03:57;;;;;;;6.60;2.92;;;;;;;11.57;87.11;101283.09;4893182;29;20476;-75
2022/09/20 22:06:28;;;;;;;5.18;3.00;;;;;;;11.32;88.11;101261.06;4890503;29;20418;-78
2022/09/20 22:08:57;;;;;;;4.78;2.40;;;;;;;11.33;89.19;101281.38;4889440;29;20059;-80
2022/09/20 22:11:26;;;;;;;3.85;2.60;;;;;;;11.26;90.05;101288.66;4893361;29;20055;-79
2022/09/20 22:13:54;;;;;;;8.18;3.10;;;;;;;11.26;90.52;101286.00;4886546;29;20063;-79
2022/09/20 22:16:23;;;;;;;5.72;2.83;;;;;;;11.07;90.22;101253.13;4886355;29;20059;-77
2022/09/20 22:18:50;;;;;;;4.88;3.33;;;;;;;11.27;90.71;101287.75;4887524;29;20489;-76
2022/09/20 22:21:20;;;;;;;6.88;3.33;;;;;;;11.28;91.01;101286.81;4890798;29;20048;-79
2022/09/20 22:23:55;;;;;;;6.10;3.10;;;;;;;11.20;91.04;101272.97;4894547;29;20414;-78
2022/09/20 22:26:25;;;;;;;6.97;3.47;;;;;;;11.25;91.44;101282.50;4890668;29;20132;-76
2022/09/20 22:28:51;;;;;;;6.93;3.40;;;;;;;11.25;91.99;101284.28;4891165;29;20525;-79
2022/09/20 22:31:21;;;;;;;5.93;3.15;;;;;;;11.25;92.25;101285.16;4889935;29;20059;-79
2022/09/20 22:33:50;;;;;;;5.93;3.42;;;;;;;11.24;92.08;101287.84;4889234;29;20052;-80
2022/09/20 22:36:20;;;;;;;5.70;2.73;;;;;;;11.29;92.33;101285.91;4892460;29;20049;-77
2022/09/20 22:38:47;;;;;;;5.70;3.13;;;;;;;11.30;92.25;101279.69;4888527;29;20457;-76
2022/09/20 22:41:15;;;;;;;3.72;2.80;;;;;;;11.15;91.85;101259.03;4888465;29;20173;-78
2022/09/20 22:43:41;;;;;;;4.45;2.97;;;;;;;11.24;92.38;101286.06;4888523;29;20506;-76
2022/09/20 22:46:10;;;;;;;5.63;2.85;;;;;;;11.25;91.85;101282.50;4894392;29;20049;-79
2022/09/20 22:48:38;;;;;;;6.85;2.60;;;;;;;11.18;92.15;101285.41;4892687;29;20487;-78
2022/09/20 22:51:26;;;;;;;7.07;2.83;;;;;;;11.09;91.82;101285.72;4893298;29;20048;-79
2022/09/20 22:53:53;;;;;;;8.23;3.10;;;;;;;10.89;92.92;101258.13;4894003;29;20061;-75
2022/09/20 22:56:28;;;;;;;4.75;2.85;;;;;;;11.00;94.10;101288.72;4895544;29;20059;-79
2022/09/20 22:58:58;;;;;;;5.65;2.85;;;;;;;10.95;93.97;101288.00;4896334;29;20132;-80
2022/09/20 23:01:28;;;;;;;6.80;3.05;;;;;;;10.86;94.63;101295.31;4894531;29;20194;-80
2022/09/20 23:04:06;;;;;;;4.55;2.80;;;;;;;10.84;94.81;101298.97;4897140;29;20059;-77
2022/09/20 23:06:36;;;;;;;5.78;2.78;;;;;;;10.80;95.42;101300.84;4891473;29;20486;-77
2022/09/20 23:09:09;;;;;;;3.23;2.57;;;;;;;10.80;95.16;101302.63;4895528;29;20495;-78
2022/09/20 23:11:36;;;;;;;6.15;3.15;;;;;;;10.82;95.88;101299.03;4893457;29;20069;-78
2022/09/20 23:14:04;;;;;;;7.32;3.20;;;;;;;10.79;96.05;101292.94;4895598;29;20076;-79
2022/09/20 23:16:34;;;;;;;4.85;3.60;;;;;;;10.79;96.18;101301.78;4893188;29;20176;-77
2022/09/20 23:19:02;;;;;;;4.55;3.05;;;;;;;10.76;96.26;101304.50;4877329;29;20060;-81
2022/09/20 23:21:29;;;;;;;6.20;4.18;;;;;;;10.71;96.88;101305.56;4895942;29;20061;-78
2022/09/20 23:24:00;;;;;;;7.18;3.70;;;;;;;10.51;97.28;101266.53;4888496;29;20069;-76
2022/09/20 23:26:29;;;;;;;5.35;3.40;;;;;;;10.61;97.90;101294.41;4892680;29;20135;-80
2022/09/20 23:29:22;;;;;;;5.70;3.33;;;;;;;10.54;98.23;101298.22;4891397;29;20050;-77
2022/09/20 23:31:49;;;;;;;6.47;3.83;;;;;;;10.49;99.33;101300.13;4895798;29;20133;-80
2022/09/20 23:34:16;;;;;;;8.00;4.30;;;;;;;10.38;99.65;101292.53;4891735;29;20076;-81
2022/09/20 23:36:43;;;;;;;7.47;4.72;;;;;;;10.34;100.00;101306.78;4893630;29;20410;-80
2022/09/20 23:39:11;;;;;;;7.13;3.90;;;;;;;10.25;100.00;101304.41;4886754;29;20056;-80
2022/09/20 23:41:38;;;;;;;6.22;4.13;;;;;;;10.17;100.00;101309.03;4890895;29;20133;-78
2022/09/20 23:44:05;;;;;;;7.40;3.95;;;;;;;10.09;100.00;101301.31;4894252;29;20068;-74
2022/09/20 23:46:32;;;;;;;5.22;4.10;;;;;;;10.09;100.00;101303.97;4891049;29;20040;-80
2022/09/20 23:48:58;;;;;;;7.43;4.85;;;;;;;10.06;100.00;101301.44;4890187;29;20429;-76
2022/09/20 23:51:25;;;;;;;7.05;4.55;;;;;;;9.84;100.00;101268.59;4894969;29;20513;-80
2022/09/20 23:53:52;;;;;;;8.20;4.50;;;;;;;9.92;100.00;101295.66;4885213;29;20449;-82
2022/09/20 23:56:21;;;;;;;7.05;3.80;;;;;;;9.94;100.00;101301.78;4893404;29;20136;-74
2022/09/20 23:58:47;;;;;;;7.20;4.50;;;;;;;10.00;100.00;101300.75;4895136;29;20070;-75
